sensor_id;sensor_type;location;lat;lon;timestamp;pressure;altitude;pressure_sealevel;temperature
82774;BMP280;72508;45.118;20.728;2024-03-22T00:07:03;100743.59;;;12.64
82774;BMP280;72508;45.118;20.728;2024-03-22T00:17:04;100735.13;;;12.62
82774;BMP280;72508;45.118;20.728;2024-03-22T00:27:07;100733.53;;;12.54
82774;BMP280;72508;45.118;20.728;2024-03-22T00:37:09;100721.47;;;12.46
82774;BMP280;72508;45.118;20.728;2024-03-22T00:47:11;100732.53;;;12.55
82774;BMP280;72508;45.118;20.728;2024-03-22T00:57:12;100732.59;;;12.48
82774;BMP280;72508;45.118;20.728;2024-03-22T01:07:14;100746.06;;;12.59
82774;BMP280;72508;45.118;20.728;2024-03-22T01:17:16;100740.25;;;12.75
82774;BMP280;72508;45.118;20.728;2024-03-22T01:27:18;100730.75;;;12.74
82774;BMP280;72508;45.118;20.728;2024-03-22T01:37:19;100732.63;;;12.67
82774;BMP280;72508;45.118;20.728;2024-03-22T01:47:22;100720.88;;;12.51
82774;BMP280;72508;45.118;20.728;2024-03-22T01:57:24;100722.19;;;12.35
82774;BMP280;72508;45.118;20.728;2024-03-22T02:07:29;100730.66;;;12.37
82774;BMP280;72508;45.118;20.728;2024-03-22T02:17:32;100723.19;;;12.66
82774;BMP280;72508;45.118;20.728;2024-03-22T02:27:34;100719.94;;;12.64
82774;BMP280;72508;45.118;20.728;2024-03-22T02:37:35;100711.47;;;12.62
82774;BMP280;72508;45.118;20.728;2024-03-22T02:47:37;100729.00;;;12.68
82774;BMP280;72508;45.118;20.728;2024-03-22T02:57:39;100736.13;;;12.61
82774;BMP280;72508;45.118;20.728;2024-03-22T03:07:40;100742.25;;;12.55
82774;BMP280;72508;45.118;20.728;2024-03-22T03:17:42;100750.41;;;12.15
82774;BMP280;72508;45.118;20.728;2024-03-22T03:27:44;100749.03;;;12.05
82774;BMP280;72508;45.118;20.728;2024-03-22T03:37:46;100752.72;;;11.98
82774;BMP280;72508;45.118;20.728;2024-03-22T03:47:47;100750.75;;;11.93
82774;BMP280;72508;45.118;20.728;2024-03-22T03:57:52;100763.91;;;11.80
82774;BMP280;72508;45.118;20.728;2024-03-22T04:07:54;100770.59;;;11.76
82774;BMP280;72508;45.118;20.728;2024-03-22T04:17:56;100775.50;;;11.59
82774;BMP280;72508;45.118;20.728;2024-03-22T04:27:58;100788.06;;;11.37
82774;BMP280;72508;45.118;20.728;2024-03-22T04:38:00;100797.38;;;11.39
82774;BMP280;72508;45.118;20.728;2024-03-22T04:48:04;100797.38;;;11.33
82774;BMP280;72508;45.118;20.728;2024-03-22T04:58:06;100813.47;;;11.36
82774;BMP280;72508;45.118;20.728;2024-03-22T05:08:08;100816.31;;;11.35
82774;BMP280;72508;45.118;20.728;2024-03-22T05:18:10;100829.63;;;11.40
82774;BMP280;72508;45.118;20.728;2024-03-22T05:28:12;100835.06;;;11.38
82774;BMP280;72508;45.118;20.728;2024-03-22T05:38:14;100839.91;;;11.55
82774;BMP280;72508;45.118;20.728;2024-03-22T05:48:15;100839.72;;;11.56
82774;BMP280;72508;45.118;20.728;2024-03-22T05:58:18;100845.06;;;11.81
82774;BMP280;72508;45.118;20.728;2024-03-22T06:08:20;100847.69;;;12.33
82774;BMP280;72508;45.118;20.728;2024-03-22T06:18:23;100854.72;;;12.71
82774;BMP280;72508;45.118;20.728;2024-03-22T06:28:28;100861.72;;;13.09
82774;BMP280;72508;45.118;20.728;2024-03-22T06:38:30;100856.94;;;13.24
82774;BMP280;72508;45.118;20.728;2024-03-22T06:48:32;100861.16;;;13.99
82774;BMP280;72508;45.118;20.728;2024-03-22T06:58:35;100855.13;;;14.28
82774;BMP280;72508;45.118;20.728;2024-03-22T07:08:39;100859.56;;;14.16
82774;BMP280;72508;45.118;20.728;2024-03-22T07:18:46;100858.25;;;14.49
82774;BMP280;72508;45.118;20.728;2024-03-22T07:28:50;100865.09;;;14.80
82774;BMP280;72508;45.118;20.728;2024-03-22T07:38:52;100855.81;;;15.25
82774;BMP280;72508;45.118;20.728;2024-03-22T07:59:45;100832.16;;;16.44
82774;BMP280;72508;45.118;20.728;2024-03-22T08:09:52;100848.13;;;16.88
82774;BMP280;72508;45.118;20.728;2024-03-22T08:20:02;100853.97;;;17.29
82774;BMP280;72508;45.118;20.728;2024-03-22T08:30:10;100862.81;;;17.84
82774;BMP280;72508;45.118;20.728;2024-03-22T08:40:12;100867.41;;;17.94
82774;BMP280;72508;45.118;20.728;2024-03-22T08:50:15;100875.53;;;18.14
82774;BMP280;72508;45.118;20.728;2024-03-22T09:00:22;100881.66;;;18.47
82774;BMP280;72508;45.118;20.728;2024-03-22T09:10:28;100884.88;;;18.59
82774;BMP280;72508;45.118;20.728;2024-03-22T09:20:30;100874.06;;;19.08
82774;BMP280;72508;45.118;20.728;2024-03-22T09:30:51;100866.78;;;19.82
82774;BMP280;72508;45.118;20.728;2024-03-22T09:40:53;100838.06;;;19.48
82774;BMP280;72508;45.118;20.728;2024-03-22T09:50:56;100859.91;;;20.06
82774;BMP280;72508;45.118;20.728;2024-03-22T10:01:21;100855.59;;;20.51
82774;BMP280;72508;45.118;20.728;2024-03-22T10:11:44;100847.63;;;20.51
82774;BMP280;72508;45.118;20.728;2024-03-22T10:21:45;100849.13;;;20.83
82774;BMP280;72508;45.118;20.728;2024-03-22T10:31:48;100841.97;;;21.33
82774;BMP280;72508;45.118;20.728;2024-03-22T10:41:51;100834.53;;;21.30
82774;BMP280;72508;45.118;20.728;2024-03-22T10:52:01;100815.16;;;21.58
82774;BMP280;72508;45.118;20.728;2024-03-22T11:02:04;100794.34;;;21.60
82774;BMP280;72508;45.118;20.728;2024-03-22T11:12:08;100786.91;;;21.52
82774;BMP280;72508;45.118;20.728;2024-03-22T11:22:10;100768.50;;;22.38
82774;BMP280;72508;45.118;20.728;2024-03-22T11:32:16;100761.84;;;23.63
82774;BMP280;72508;45.118;20.728;2024-03-22T11:42:19;100698.44;;;24.05
82774;BMP280;72508;45.118;20.728;2024-03-22T11:52:24;100738.00;;;24.44
82774;BMP280;72508;45.118;20.728;2024-03-22T12:02:26;100696.16;;;24.34
82774;BMP280;72508;45.118;20.728;2024-03-22T12:12:27;100702.75;;;24.87
82774;BMP280;72508;45.118;20.728;2024-03-22T12:22:30;100689.38;;;24.87
82774;BMP280;72508;45.118;20.728;2024-03-22T12:32:37;100693.63;;;24.65
82774;BMP280;72508;45.118;20.728;2024-03-22T12:42:40;100671.78;;;23.99
82774;BMP280;72508;45.118;20.728;2024-03-22T12:52:43;100652.06;;;23.54
82774;BMP280;72508;45.118;20.728;2024-03-22T13:02:52;100675.47;;;23.76
82774;BMP280;72508;45.118;20.728;2024-03-22T13:12:57;100611.28;;;23.21
82774;BMP280;72508;45.118;20.728;2024-03-22T13:22:59;100659.41;;;23.76
82774;BMP280;72508;45.118;20.728;2024-03-22T13:33:02;100602.59;;;24.07
82774;BMP280;72508;45.118;20.728;2024-03-22T13:43:04;100608.31;;;23.77
82774;BMP280;72508;45.118;20.728;2024-03-22T13:53:07;100624.31;;;23.91
82774;BMP280;72508;45.118;20.728;2024-03-22T14:03:09;100619.28;;;23.76
82774;BMP280;72508;45.118;20.728;2024-03-22T14:13:11;100608.97;;;24.33
82774;BMP280;72508;45.118;20.728;2024-03-22T14:23:13;100605.00;;;23.94
82774;BMP280;72508;45.118;20.728;2024-03-22T14:33:15;100610.31;;;23.44
82774;BMP280;72508;45.118;20.728;2024-03-22T14:43:18;100585.53;;;23.11
82774;BMP280;72508;45.118;20.728;2024-03-22T14:53:20;100582.59;;;22.80
82774;BMP280;72508;45.118;20.728;2024-03-22T15:03:25;100581.03;;;22.46
82774;BMP280;72508;45.118;20.728;2024-03-22T15:13:26;100576.03;;;22.21
82774;BMP280;72508;45.118;20.728;2024-03-22T15:23:29;100554.50;;;21.98
82774;BMP280;72508;45.118;20.728;2024-03-22T15:33:31;100564.63;;;21.77
82774;BMP280;72508;45.118;20.728;2024-03-22T15:43:32;100560.22;;;21.68
82774;BMP280;72508;45.118;20.728;2024-03-22T15:53:36;100558.00;;;21.51
82774;BMP280;72508;45.118;20.728;2024-03-22T16:03:38;100553.19;;;21.29
82774;BMP280;72508;45.118;20.728;2024-03-22T16:13:40;100532.44;;;21.26
82774;BMP280;72508;45.118;20.728;2024-03-22T16:23:42;100543.72;;;21.18
82774;BMP280;72508;45.118;20.728;2024-03-22T16:33:44;100535.22;;;20.86
82774;BMP280;72508;45.118;20.728;2024-03-22T16:43:46;100539.34;;;20.69
82774;BMP280;72508;45.118;20.728;2024-03-22T16:53:47;100542.41;;;20.47
82774;BMP280;72508;45.118;20.728;2024-03-22T17:03:49;100542.38;;;20.17
82774;BMP280;72508;45.118;20.728;2024-03-22T17:13:51;100538.22;;;19.96
82774;BMP280;72508;45.118;20.728;2024-03-22T17:23:53;100551.59;;;19.81
82774;BMP280;72508;45.118;20.728;2024-03-22T17:33:55;100558.00;;;19.64
82774;BMP280;72508;45.118;20.728;2024-03-22T17:43:57;100567.88;;;19.54
82774;BMP280;72508;45.118;20.728;2024-03-22T17:53:58;100571.84;;;19.51
82774;BMP280;72508;45.118;20.728;2024-03-22T18:04:00;100569.72;;;19.43
82774;BMP280;72508;45.118;20.728;2024-03-22T18:14:02;100559.69;;;19.19
82774;BMP280;72508;45.118;20.728;2024-03-22T18:24:04;100563.91;;;19.00
82774;BMP280;72508;45.118;20.728;2024-03-22T18:34:06;100571.06;;;18.74
82774;BMP280;72508;45.118;20.728;2024-03-22T18:44:07;100563.34;;;18.42
82774;BMP280;72508;45.118;20.728;2024-03-22T18:54:09;100547.88;;;18.18
82774;BMP280;72508;45.118;20.728;2024-03-22T19:04:11;100556.00;;;18.01
82774;BMP280;72508;45.118;20.728;2024-03-22T19:14:12;100545.94;;;17.93
82774;BMP280;72508;45.118;20.728;2024-03-22T19:24:14;100538.19;;;17.86
82774;BMP280;72508;45.118;20.728;2024-03-22T19:34:16;100535.44;;;17.66
82774;BMP280;72508;45.118;20.728;2024-03-22T19:44:17;100534.28;;;17.52
82774;BMP280;72508;45.118;20.728;2024-03-22T19:54:19;100522.84;;;17.46
82774;BMP280;72508;45.118;20.728;2024-03-22T20:04:22;100538.16;;;17.34
82774;BMP280;72508;45.118;20.728;2024-03-22T20:14:24;100514.47;;;17.17
82774;BMP280;72508;45.118;20.728;2024-03-22T20:24:26;100534.47;;;17.03
82774;BMP280;72508;45.118;20.728;2024-03-22T20:34:28;100518.84;;;16.74
